TimeCST,TemperatureF,Dew PointF,Humidity,Sea Level PressureIn,VisibilityMPH,Wind Direction,Wind SpeedMPH,Gust SpeedMPH,PrecipitationIn,Events,Conditions,WindDirDegrees,DateUTC
12:15 AM,35.6,28.4,75,30.01,10.0,NE,11.5,-,N/A,,Overcast,40,2012-01-20 06:15:00
12:35 AM,35.6,28.4,75,30.00,10.0,ENE,17.3,-,N/A,,Overcast,60,2012-01-20 06:35:00
12:55 AM,35.6,28.4,75,30.01,10.0,NE,13.8,-,N/A,,Overcast,40,2012-01-20 06:55:00
1:15 AM,35.6,28.4,75,30.02,10.0,NNE,16.1,-,N/A,,Overcast,30,2012-01-20 07:15:00
1:35 AM,33.8,28.4,81,30.02,10.0,NNE,15.0,-,N/A,,Overcast,30,2012-01-20 07:35:00
1:55 AM,33.8,28.4,81,30.01,10.0,NNE,11.5,-,N/A,,Overcast,30,2012-01-20 07:55:00
2:15 AM,33.8,28.4,81,30.01,10.0,NNE,16.1,-,N/A,,Overcast,30,2012-01-20 08:15:00
2:35 AM,33.8,28.4,81,30.01,10.0,NE,15.0,-,N/A,,Overcast,40,2012-01-20 08:35:00
2:55 AM,33.8,28.4,81,30.01,10.0,NNE,11.5,-,N/A,,Overcast,30,2012-01-20 08:55:00
3:15 AM,33.8,28.4,81,30.00,10.0,NNE,12.7,-,N/A,,Overcast,30,2012-01-20 09:15:00
3:35 AM,33.8,28.4,81,29.99,10.0,NE,13.8,-,N/A,,Overcast,50,2012-01-20 09:35:00
3:55 AM,33.8,28.4,81,29.98,10.0,NE,13.8,-,N/A,,Overcast,50,2012-01-20 09:55:00
4:15 AM,33.8,28.4,81,29.98,10.0,ENE,15.0,-,N/A,,Overcast,60,2012-01-20 10:15:00
4:35 AM,33.8,28.4,81,29.97,10.0,NE,16.1,-,N/A,,Overcast,50,2012-01-20 10:35:00
4:55 AM,33.8,28.4,81,29.96,10.0,NE,18.4,23.0,N/A,,Overcast,50,2012-01-20 10:55:00
5:15 AM,33.8,28.4,81,29.97,10.0,NE,16.1,21.9,N/A,,Mostly Cloudy,50,2012-01-20 11:15:00
5:35 AM,33.8,28.4,81,29.97,10.0,NE,16.1,-,N/A,,Scattered Clouds,50,2012-01-20 11:35:00
5:55 AM,33.8,28.4,81,29.97,10.0,NE,12.7,-,N/A,,Mostly Cloudy,50,2012-01-20 11:55:00
6:15 AM,33.8,28.4,81,29.98,10.0,NE,16.1,-,N/A,,Overcast,40,2012-01-20 12:15:00
6:35 AM,33.8,28.4,81,29.98,10.0,NE,16.1,-,N/A,,Overcast,50,2012-01-20 12:35:00
6:55 AM,33.8,28.4,81,29.98,10.0,NE,16.1,-,N/A,,Overcast,50,2012-01-20 12:55:00
7:15 AM,33.8,28.4,81,29.98,10.0,NE,17.3,-,N/A,,Overcast,50,2012-01-20 13:15:00
7:35 AM,33.8,28.4,81,29.98,10.0,NE,16.1,20.7,N/A,,Overcast,50,2012-01-20 13:35:00
7:55 AM,33.8,28.4,81,29.97,10.0,NE,15.0,-,N/A,,Overcast,50,2012-01-20 13:55:00
8:15 AM,33.8,28.4,81,29.97,10.0,NE,17.3,-,N/A,,Overcast,50,2012-01-20 14:15:00
9:15 AM,33.8,30.2,87,29.96,10.0,ENE,13.8,-,N/A,,Overcast,60,2012-01-20 15:15:00
9:35 AM,35.6,30.2,81,29.95,10.0,ENE,12.7,16.1,N/A,,Overcast,60,2012-01-20 15:35:00
9:55 AM,35.6,30.2,81,29.95,10.0,ENE,10.4,-,N/A,,Overcast,60,2012-01-20 15:55:00
10:15 AM,35.6,30.2,81,29.94,10.0,NE,11.5,-,N/A,,Overcast,50,2012-01-20 16:15:00
10:35 AM,35.6,30.2,81,29.94,10.0,NE,11.5,-,N/A,,Overcast,50,2012-01-20 16:35:00
10:55 AM,35.6,30.2,81,29.95,10.0,NE,9.2,-,N/A,,Overcast,50,2012-01-20 16:55:00
11:15 AM,37.4,30.2,75,29.91,10.0,ENE,11.5,-,N/A,,Overcast,60,2012-01-20 17:15:00
11:35 AM,37.4,30.2,75,29.91,10.0,NE,10.4,-,N/A,,Overcast,50,2012-01-20 17:35:00
11:55 AM,37.4,32.0,81,29.88,10.0,ENE,10.4,-,N/A,,Overcast,60,2012-01-20 17:55:00
12:15 PM,39.2,33.8,81,29.86,10.0,NE,11.5,-,N/A,,Overcast,50,2012-01-20 18:15:00
12:35 PM,39.2,33.8,81,29.85,10.0,ENE,10.4,-,N/A,,Overcast,70,2012-01-20 18:35:00
12:55 PM,39.2,33.8,81,29.83,10.0,ENE,9.2,-,N/A,,Overcast,60,2012-01-20 18:55:00
1:15 PM,39.2,33.8,81,29.82,10.0,ENE,9.2,-,N/A,,Overcast,60,2012-01-20 19:15:00
1:35 PM,39.2,33.8,81,29.80,10.0,ENE,9.2,-,N/A,,Overcast,60,2012-01-20 19:35:00
1:55 PM,41.0,35.6,81,29.78,10.0,ENE,9.2,-,N/A,,Overcast,60,2012-01-20 19:55:00
2:15 PM,42.8,35.6,76,29.77,10.0,ENE,8.1,-,N/A,,Overcast,60,2012-01-20 20:15:00
2:35 PM,42.8,35.6,76,29.77,10.0,ENE,6.9,-,N/A,,Overcast,60,2012-01-20 20:35:00
2:55 PM,42.8,35.6,76,29.76,10.0,ENE,8.1,-,N/A,,Overcast,60,2012-01-20 20:55:00
3:15 PM,42.8,35.6,76,29.78,10.0,North,6.9,-,N/A,,Overcast,360,2012-01-20 21:15:00
3:55 PM,41.0,35.6,81,29.78,10.0,North,10.4,-,N/A,,Overcast,360,2012-01-20 21:55:00
4:15 PM,41.0,35.6,81,29.79,10.0,North,12.7,-,N/A,,Overcast,350,2012-01-20 22:15:00
4:35 PM,39.2,35.6,87,29.79,10.0,North,9.2,-,N/A,,Overcast,350,2012-01-20 22:35:00
4:55 PM,39.2,35.6,87,29.78,10.0,NNE,8.1,-,N/A,,Overcast,20,2012-01-20 22:55:00
5:15 PM,41.0,35.6,81,29.79,10.0,North,9.2,-,N/A,,Overcast,360,2012-01-20 23:15:00
5:35 PM,41.0,35.6,81,29.79,10.0,North,9.2,-,N/A,,Overcast,360,2012-01-20 23:35:00
5:55 PM,39.2,35.6,87,29.81,10.0,North,12.7,-,N/A,,Overcast,350,2012-01-20 23:55:00
6:15 PM,39.2,35.6,87,29.81,10.0,North,12.7,-,N/A,,Overcast,360,2012-01-21 00:15:00
6:35 PM,39.2,35.6,87,29.80,10.0,North,10.4,-,N/A,,Overcast,360,2012-01-21 00:35:00
6:55 PM,39.2,35.6,87,29.81,10.0,North,10.4,-,N/A,,Overcast,360,2012-01-21 00:55:00
7:15 PM,39.2,35.6,87,29.81,8.0,North,10.4,-,N/A,,Overcast,360,2012-01-21 01:15:00
7:35 PM,39.2,35.6,87,29.81,7.0,North,10.4,-,N/A,,Overcast,360,2012-01-21 01:35:00
7:55 PM,39.2,35.6,87,29.81,7.0,North,9.2,-,N/A,,Overcast,360,2012-01-21 01:55:00
8:15 PM,39.2,35.6,87,29.82,7.0,North,11.5,-,N/A,,Overcast,350,2012-01-21 02:15:00
8:35 PM,39.2,35.6,87,29.83,7.0,North,10.4,-,N/A,,Overcast,360,2012-01-21 02:35:00
8:55 PM,39.2,35.6,87,29.83,6.0,North,10.4,-,N/A,,Overcast,10,2012-01-21 02:55:00
9:15 PM,39.2,35.6,87,29.84,5.0,North,13.8,-,0.02,,Overcast,360,2012-01-21 03:15:00
9:35 PM,37.4,37.4,100,29.86,3.0,NNW,13.8,-,0.02,,Overcast,330,2012-01-21 03:35:00
9:55 PM,37.4,37.4,100,29.86,4.0,North,12.7,-,0.02,,Overcast,350,2012-01-21 03:55:00
10:15 PM,37.4,35.6,93,29.87,4.0,North,11.5,-,0.02,,Overcast,350,2012-01-21 04:15:00
10:35 PM,37.4,37.4,100,29.89,4.0,NNW,11.5,-,0.03,,Overcast,340,2012-01-21 04:35:00
10:55 PM,37.4,37.4,100,29.88,5.0,North,12.7,-,0.03,,Overcast,360,2012-01-21 04:55:00
11:15 PM,37.4,37.4,100,29.89,4.0,North,9.2,-,N/A,,Overcast,360,2012-01-21 05:15:00
11:35 PM,37.4,37.4,100,29.92,5.0,NNW,9.2,-,N/A,,Overcast,340,2012-01-21 05:35:00
11:55 PM,37.4,37.4,100,29.90,5.0,North,6.9,-,N/A,,Mostly Cloudy,10,2012-01-21 05:55:00